createdAt,value
2022-08-30T00:01:06.333Z,6.72
2022-08-30T00:03:34.517Z,8.38
2022-08-30T00:06:01.856Z,6.75
2022-08-30T00:08:29.115Z,7.07
2022-08-30T00:10:56.295Z,9.00
2022-08-30T00:13:24.037Z,7.78
2022-08-30T00:15:51.415Z,9.27
2022-08-30T00:18:20.566Z,6.45
2022-08-30T00:20:52.533Z,6.18
2022-08-30T00:23:20.206Z,7.55
2022-08-30T00:25:47.362Z,7.43
2022-08-30T00:28:16.943Z,9.90
2022-08-30T00:30:44.958Z,5.50
2022-08-30T00:33:12.838Z,8.73
2022-08-30T00:35:40.020Z,7.05
2022-08-30T00:38:07.754Z,7.30
2022-08-30T00:40:35.333Z,10.23
2022-08-30T00:43:05.740Z,8.90
2022-08-30T00:45:37.529Z,5.90
2022-08-30T00:48:05.581Z,7.70
2022-08-30T00:50:38.602Z,6.47
2022-08-30T00:53:07.949Z,6.53
2022-08-30T00:55:35.195Z,5.53
2022-08-30T00:58:07.331Z,7.80
2022-08-30T01:00:35.061Z,8.13
2022-08-30T01:03:02.231Z,7.53
2022-08-30T01:05:29.703Z,8.57
2022-08-30T01:07:57.325Z,10.30
2022-08-30T01:10:24.517Z,9.52
2022-08-30T01:12:51.682Z,7.70
2022-08-30T01:15:18.937Z,6.90
2022-08-30T01:17:48.469Z,6.65
2022-08-30T01:20:18.168Z,14.13
2022-08-30T01:22:53.844Z,9.73
2022-08-30T01:25:22.945Z,6.35
2022-08-30T01:27:52.788Z,8.07
2022-08-30T01:30:20.101Z,7.07
2022-08-30T01:32:48.178Z,6.07
2022-08-30T01:35:16.331Z,6.55
2022-08-30T01:37:43.878Z,8.38
2022-08-30T01:40:11.650Z,8.77
2022-08-30T01:42:38.987Z,8.15
2022-08-30T01:45:07.034Z,10.90
2022-08-30T01:47:34.289Z,5.28
2022-08-30T01:50:01.432Z,10.80
2022-08-30T01:52:28.961Z,5.93
2022-08-30T01:54:56.166Z,8.40
2022-08-30T01:57:26.723Z,8.50
2022-08-30T01:59:53.872Z,8.45
2022-08-30T02:02:23.023Z,7.97
2022-08-30T02:04:51.809Z,7.35
2022-08-30T02:07:18.973Z,9.02
2022-08-30T02:09:46.316Z,6.18
2022-08-30T02:12:14.336Z,6.05
2022-08-30T02:14:41.574Z,9.45
2022-08-30T02:17:10.502Z,6.28
2022-08-30T02:19:38.397Z,6.70
2022-08-30T02:22:05.725Z,5.88
2022-08-30T02:24:32.927Z,11.18
2022-08-30T02:27:00.218Z,6.70
2022-08-30T02:29:27.432Z,8.10
2022-08-30T02:31:54.878Z,6.60
2022-08-30T02:34:22.146Z,5.20
2022-08-30T02:36:49.353Z,6.78
2022-08-30T02:39:16.503Z,7.97
2022-08-30T02:41:44.111Z,5.90
2022-08-30T02:44:11.441Z,8.25
2022-08-30T02:46:39.157Z,7.28
2022-08-30T02:49:30.269Z,6.85
2022-08-30T02:51:55.796Z,6.60
2022-08-30T02:54:22.953Z,10.50
2022-08-30T02:56:50.894Z,6.53
2022-08-30T02:59:19.114Z,9.10
2022-08-30T03:01:46.349Z,8.50
2022-08-30T03:04:13.541Z,7.05
2022-08-30T03:06:40.712Z,7.28
2022-08-30T03:09:07.927Z,9.77
2022-08-30T03:11:35.201Z,7.63
2022-08-30T03:14:02.467Z,6.10
2022-08-30T03:16:29.673Z,8.23
2022-08-30T03:18:56.899Z,6.63
2022-08-30T03:21:24.014Z,6.90
2022-08-30T03:23:51.157Z,6.95
2022-08-30T03:26:18.285Z,11.32
2022-08-30T03:28:45.421Z,10.90
2022-08-30T03:31:12.636Z,11.00
2022-08-30T03:33:40.533Z,6.05
2022-08-30T03:36:08.604Z,6.47
2022-08-30T03:38:35.762Z,9.75
2022-08-30T03:41:04.283Z,7.07
2022-08-30T03:43:33.387Z,6.32
2022-08-30T03:46:01.822Z,9.77
2022-08-30T03:48:29.630Z,7.25
2022-08-30T03:50:57.002Z,8.15
2022-08-30T03:53:25.745Z,7.45
2022-08-30T03:55:54.890Z,5.88
2022-08-30T03:58:22.420Z,8.88
2022-08-30T04:00:49.739Z,6.60
2022-08-30T04:03:18.522Z,7.70
2022-08-30T04:05:45.837Z,11.70
2022-08-30T04:08:12.989Z,6.95
2022-08-30T04:10:40.142Z,7.50
2022-08-30T04:13:07.430Z,7.13
2022-08-30T04:15:34.553Z,8.68
2022-08-30T04:18:01.732Z,6.57
2022-08-30T04:20:28.883Z,8.18
2022-08-30T04:22:56.059Z,9.88
2022-08-30T04:25:23.187Z,8.18
2022-08-30T04:27:50.751Z,9.57
2022-08-30T04:30:18.492Z,11.20
2022-08-30T04:32:45.929Z,11.73
2022-08-30T04:35:13.731Z,11.55
2022-08-30T04:37:40.926Z,12.25
2022-08-30T04:40:08.533Z,12.23
2022-08-30T04:42:36.021Z,10.13
2022-08-30T04:45:05.519Z,10.85
2022-08-30T04:47:32.767Z,13.13
2022-08-30T04:49:59.945Z,10.55
2022-08-30T04:52:27.286Z,9.07
2022-08-30T04:54:57.911Z,8.73
2022-08-30T04:57:25.699Z,7.90
2022-08-30T04:59:52.832Z,10.57
2022-08-30T05:02:20.510Z,9.05
2022-08-30T05:05:06.932Z,10.63
2022-08-30T05:07:34.086Z,9.00
2022-08-30T05:10:01.189Z,11.80
2022-08-30T05:12:28.396Z,6.43
2022-08-30T05:14:58.227Z,8.45
2022-08-30T05:17:25.557Z,8.75
2022-08-30T05:19:52.721Z,9.25
2022-08-30T05:22:19.855Z,9.75
2022-08-30T05:24:47.001Z,7.15
2022-08-30T05:27:14.176Z,8.05
2022-08-30T05:29:41.315Z,9.73
2022-08-30T05:32:09.183Z,9.27
2022-08-30T05:34:36.863Z,7.50
2022-08-30T05:37:04.075Z,9.32
2022-08-30T05:39:33.973Z,7.85
2022-08-30T05:42:18.356Z,8.48
2022-08-30T05:44:45.517Z,8.75
2022-08-30T05:47:12.683Z,10.95
2022-08-30T05:49:39.814Z,8.65
2022-08-30T05:52:06.954Z,13.98
2022-08-30T05:54:34.082Z,13.70
2022-08-30T05:57:01.891Z,16.27
2022-08-30T05:59:29.031Z,22.90
2022-08-30T06:01:57.754Z,25.95
2022-08-30T06:04:24.994Z,20.27
2022-08-30T06:06:52.162Z,21.77
2022-08-30T06:09:19.517Z,17.73
2022-08-30T06:11:46.882Z,21.02
2022-08-30T06:14:14.554Z,17.17
2022-08-30T06:16:45.587Z,12.07
2022-08-30T06:19:13.458Z,11.38
2022-08-30T06:21:41.172Z,8.07
2022-08-30T06:24:09.422Z,7.15
2022-08-30T06:26:41.369Z,10.57
2022-08-30T06:29:08.939Z,8.98
2022-08-30T06:31:36.150Z,8.82
2022-08-30T06:34:03.396Z,9.63
2022-08-30T06:36:30.624Z,6.25
2022-08-30T06:38:58.465Z,6.22
2022-08-30T06:41:29.300Z,9.13
2022-08-30T06:43:57.107Z,6.57
2022-08-30T06:46:25.871Z,10.70
2022-08-30T06:48:53.321Z,6.70
2022-08-30T06:51:28.053Z,5.78
2022-08-30T06:53:55.242Z,8.77
2022-08-30T06:56:22.927Z,5.47
2022-08-30T06:58:50.498Z,6.82
2022-08-30T07:01:19.901Z,5.07
2022-08-30T07:03:47.165Z,9.57
2022-08-30T07:06:14.364Z,7.38
2022-08-30T07:08:41.889Z,10.38
2022-08-30T07:11:09.429Z,7.70
2022-08-30T07:13:37.022Z,5.53
2022-08-30T07:16:11.764Z,7.63
2022-08-30T07:18:51.045Z,7.80
2022-08-30T07:21:20.254Z,7.15
2022-08-30T07:23:53.474Z,7.28
2022-08-30T07:26:22.496Z,8.60
2022-08-30T07:28:50.553Z,8.25
2022-08-30T07:31:23.693Z,7.50
2022-08-30T07:33:50.911Z,10.40
2022-08-30T07:36:18.100Z,6.82
2022-08-30T07:38:46.684Z,7.20
2022-08-30T07:41:21.262Z,7.57
2022-08-30T07:43:48.471Z,5.25
2022-08-30T07:46:16.130Z,8.63
2022-08-30T07:48:44.204Z,8.00
2022-08-30T07:51:16.207Z,10.07
2022-08-30T07:53:43.565Z,9.20
2022-08-30T07:56:10.902Z,7.88
2022-08-30T07:58:38.204Z,7.32
2022-08-30T08:01:06.345Z,7.93
2022-08-30T08:03:33.733Z,9.48
2022-08-30T08:06:01.989Z,7.13
2022-08-30T08:08:29.150Z,8.38
2022-08-30T08:10:56.317Z,7.65
2022-08-30T08:13:23.625Z,5.30
2022-08-30T08:15:55.298Z,6.37
2022-08-30T08:18:22.507Z,6.43
2022-08-30T08:20:49.608Z,7.05
2022-08-30T08:23:21.785Z,6.10
2022-08-30T08:25:48.953Z,7.32
2022-08-30T08:28:16.220Z,6.13
2022-08-30T08:30:48.061Z,6.38
2022-08-30T08:33:15.485Z,5.63
2022-08-30T08:35:42.702Z,7.63
2022-08-30T08:38:10.405Z,9.18
2022-08-30T08:40:44.413Z,9.98
2022-08-30T08:43:13.074Z,8.15
2022-08-30T08:45:52.203Z,5.10
2022-08-30T08:48:28.839Z,5.63
2022-08-30T08:51:22.572Z,5.70
2022-08-30T08:54:14.278Z,7.70
2022-08-30T08:56:41.431Z,6.18
2022-08-30T08:59:09.715Z,5.20
2022-08-30T09:01:38.990Z,5.72
2022-08-30T09:04:09.363Z,4.93
2022-08-30T09:06:57.711Z,7.28
2022-08-30T09:09:30.286Z,6.13
2022-08-30T09:14:30.237Z,8.25
2022-08-30T09:16:57.720Z,6.13
2022-08-30T09:19:34.355Z,5.22
2022-08-30T09:22:03.733Z,8.35
2022-08-30T09:24:42.339Z,8.35
2022-08-30T09:27:23.816Z,4.97
2022-08-30T09:30:02.082Z,5.10
2022-08-30T09:32:32.097Z,5.78
2022-08-30T09:34:59.682Z,7.57
2022-08-30T09:37:29.506Z,8.38
2022-08-30T09:39:57.245Z,4.80
2022-08-30T09:42:26.181Z,6.57
2022-08-30T09:45:10.155Z,6.15
2022-08-30T09:47:39.008Z,7.97
2022-08-30T09:50:15.349Z,5.95
2022-08-30T09:52:46.280Z,5.50
2022-08-30T09:55:24.107Z,6.75
2022-08-30T09:58:00.619Z,7.43
2022-08-30T10:00:31.399Z,5.63
2022-08-30T10:02:58.614Z,6.45
2022-08-30T10:05:45.707Z,6.38
2022-08-30T10:08:26.276Z,5.82
2022-08-30T10:11:13.788Z,5.65
2022-08-30T10:13:51.926Z,7.40
2022-08-30T10:16:22.834Z,6.93
2022-08-30T10:19:04.252Z,5.93
2022-08-30T10:21:41.687Z,4.80
2022-08-30T10:24:20.805Z,6.05
2022-08-30T10:26:54.966Z,7.40
2022-08-30T10:29:34.097Z,7.47
2022-08-30T10:32:13.394Z,5.50
2022-08-30T10:34:46.534Z,4.57
2022-08-30T10:37:16.596Z,5.47
2022-08-30T10:39:46.515Z,8.63
2022-08-30T10:42:16.869Z,6.50
2022-08-30T10:44:47.535Z,5.72
2022-08-30T10:47:23.432Z,5.72
2022-08-30T10:49:54.173Z,12.00
2022-08-30T10:52:29.614Z,5.00
2022-08-30T10:54:59.849Z,4.47
2022-08-30T10:57:27.830Z,5.68
2022-08-30T10:59:59.560Z,5.18
2022-08-30T11:02:45.529Z,8.40
2022-08-30T11:05:31.261Z,5.93
2022-08-30T11:08:01.687Z,6.25
2022-08-30T11:10:32.488Z,5.63
2022-08-30T11:13:05.006Z,6.20
2022-08-30T11:18:06.640Z,6.13
2022-08-30T11:20:42.935Z,5.22
2022-08-30T11:23:19.113Z,4.97
2022-08-30T11:25:57.655Z,5.18
2022-08-30T11:28:37.395Z,6.28
2022-08-30T11:31:06.766Z,5.35
2022-08-30T11:33:46.381Z,7.05
2022-08-30T11:36:37.237Z,4.45
2022-08-30T11:39:14.250Z,5.28
2022-08-30T11:41:47.783Z,6.25
2022-08-30T11:44:27.611Z,5.72
2022-08-30T11:46:56.593Z,4.47
2022-08-30T11:49:32.333Z,4.45
2022-08-30T11:52:27.419Z,5.47
2022-08-30T11:55:14.157Z,6.10
2022-08-30T11:58:11.473Z,6.75
2022-08-30T12:00:40.825Z,5.60
2022-08-30T12:03:17.120Z,4.97
2022-08-30T12:05:45.556Z,5.18
2022-08-30T12:08:21.317Z,5.22
2022-08-30T12:10:53.317Z,4.85
2022-08-30T12:13:43.743Z,5.32
2022-08-30T12:16:14.551Z,6.38
2022-08-30T12:18:45.477Z,6.53
2022-08-30T12:21:18.863Z,4.53
2022-08-30T12:24:05.767Z,6.57
2022-08-30T12:26:41.149Z,7.88
2022-08-30T12:29:08.481Z,4.63
2022-08-30T12:31:45.598Z,4.90
2022-08-30T12:34:29.747Z,6.50
2022-08-30T12:36:58.993Z,6.60
2022-08-30T12:39:28.715Z,5.35
2022-08-30T12:41:56.216Z,5.57
2022-08-30T12:44:27.906Z,5.88
2022-08-30T12:46:59.950Z,4.70
2022-08-30T12:49:28.781Z,4.38
2022-08-30T12:51:56.639Z,6.18
2022-08-30T12:54:27.956Z,7.82
2022-08-30T12:57:13.960Z,6.35
2022-08-30T12:59:55.511Z,5.78
2022-08-30T13:02:27.359Z,5.47
2022-08-30T13:04:55.675Z,5.32
2022-08-30T13:07:27.069Z,6.28
2022-08-30T13:10:01.311Z,7.47
2022-08-30T13:12:28.986Z,5.40
2022-08-30T13:15:16.475Z,5.43
2022-08-30T13:17:44.102Z,5.07
2022-08-30T13:20:17.194Z,4.43
2022-08-30T13:23:01.699Z,9.45
2022-08-30T13:25:30.853Z,4.38
2022-08-30T13:28:00.820Z,4.60
2022-08-30T13:30:28.326Z,4.55
2022-08-30T13:32:56.493Z,6.22
2022-08-30T13:35:23.775Z,5.00
2022-08-30T13:37:51.431Z,6.70
2022-08-30T13:40:19.740Z,10.00
2022-08-30T13:42:47.174Z,5.45
2022-08-30T13:48:02.470Z,5.78
2022-08-30T13:50:30.544Z,6.70
2022-08-30T13:52:57.984Z,5.57
2022-08-30T13:55:25.295Z,7.22
2022-08-30T13:57:54.798Z,8.98
2022-08-30T14:00:22.510Z,5.05
2022-08-30T14:02:55.923Z,5.03
2022-08-30T14:11:02.329Z,5.13
2022-08-30T14:13:29.748Z,5.57
2022-08-30T14:18:45.175Z,6.22
2022-08-30T14:21:12.541Z,4.68
2022-08-30T14:23:39.707Z,6.43
2022-08-30T14:26:11.978Z,4.82
2022-08-30T14:28:39.213Z,8.15
2022-08-30T14:31:06.490Z,4.63
2022-08-30T14:33:33.775Z,5.03
2022-08-30T14:36:00.975Z,4.75
2022-08-30T14:38:28.118Z,5.07
2022-08-30T14:40:55.234Z,9.52
2022-08-30T14:43:22.350Z,4.80
2022-08-30T14:45:51.042Z,6.82
2022-08-30T14:48:18.370Z,4.93
2022-08-30T14:50:46.976Z,4.85
2022-08-30T14:53:14.109Z,5.00
2022-08-30T14:55:41.343Z,5.13
2022-08-30T14:58:10.710Z,4.93
2022-08-30T15:00:38.555Z,6.78
2022-08-30T15:03:06.123Z,6.72
2022-08-30T15:05:33.339Z,6.68
2022-08-30T15:08:00.483Z,5.65
2022-08-30T15:10:27.694Z,7.75
2022-08-30T15:12:54.896Z,5.63
2022-08-30T15:15:22.268Z,5.07
2022-08-30T15:17:49.614Z,6.68
2022-08-30T15:20:20.695Z,8.70
2022-08-30T15:22:47.974Z,6.88
2022-08-30T15:25:15.123Z,6.43
2022-08-30T15:27:42.327Z,6.25
2022-08-30T15:30:10.962Z,5.80
2022-08-30T15:32:38.345Z,7.32
2022-08-30T15:35:05.977Z,6.75
2022-08-30T15:37:35.174Z,5.15
2022-08-30T15:40:04.656Z,5.97
2022-08-30T15:42:33.677Z,6.07
2022-08-30T15:45:00.822Z,6.68
2022-08-30T15:47:27.974Z,5.68
2022-08-30T15:49:59.426Z,7.57
2022-08-30T15:52:27.582Z,5.00
2022-08-30T15:54:54.865Z,5.72
2022-08-30T15:57:21.977Z,6.45
2022-08-30T15:59:49.422Z,6.70
2022-08-30T16:02:16.788Z,7.13
2022-08-30T16:04:44.101Z,6.03
2022-08-30T16:07:11.436Z,5.25
2022-08-30T16:09:38.700Z,8.38
2022-08-30T16:12:08.077Z,6.70
2022-08-30T16:14:37.087Z,7.05
2022-08-30T16:17:05.559Z,7.35
2022-08-30T16:19:32.854Z,7.25
2022-08-30T16:22:00.011Z,6.43
2022-08-30T16:24:27.274Z,6.40
2022-08-30T16:26:54.542Z,6.03
2022-08-30T16:29:21.687Z,5.38
2022-08-30T16:31:49.061Z,6.15
2022-08-30T16:34:18.040Z,6.00
2022-08-30T16:36:45.542Z,5.75
2022-08-30T16:39:13.404Z,6.00
2022-08-30T16:41:41.368Z,5.82
2022-08-30T16:44:08.567Z,6.72
2022-08-30T16:46:41.170Z,5.30
2022-08-30T16:49:08.801Z,5.13
2022-08-30T16:51:36.747Z,8.88
2022-08-30T16:54:07.866Z,9.10
2022-08-30T16:56:35.889Z,7.88
2022-08-30T16:59:04.688Z,7.88
2022-08-30T17:01:34.896Z,6.70
2022-08-30T17:04:02.711Z,6.85
2022-08-30T17:06:29.880Z,8.00
2022-08-30T17:08:57.240Z,6.07
2022-08-30T17:11:24.665Z,4.97
2022-08-30T17:13:51.956Z,4.47
2022-08-30T17:16:22.289Z,5.25
2022-08-30T17:18:51.633Z,9.48
2022-08-30T17:21:18.910Z,6.78
2022-08-30T17:23:46.703Z,4.70
2022-08-30T17:26:16.650Z,6.57
2022-08-30T17:28:44.241Z,6.88
2022-08-30T17:31:11.407Z,7.75
2022-08-30T17:33:39.926Z,5.63
2022-08-30T17:36:07.756Z,7.45
2022-08-30T17:38:35.118Z,5.30
2022-08-30T17:41:08.532Z,5.60
2022-08-30T17:43:36.979Z,4.30
2022-08-30T17:46:05.109Z,4.75
2022-08-30T17:48:32.307Z,4.13
2022-08-30T17:50:59.637Z,4.30
2022-08-30T17:53:26.926Z,5.82
2022-08-30T17:55:54.159Z,9.57
2022-08-30T17:58:22.321Z,5.57
2022-08-30T18:00:50.318Z,6.30
2022-08-30T18:03:18.117Z,5.57
2022-08-30T18:05:46.819Z,5.45
2022-08-30T18:08:14.312Z,5.63
2022-08-30T18:10:41.497Z,4.43
2022-08-30T18:13:10.147Z,6.57
2022-08-30T18:15:37.339Z,4.20
2022-08-30T18:18:11.545Z,7.70
2022-08-30T18:20:39.969Z,4.28
2022-08-30T18:23:07.095Z,4.93
2022-08-30T18:25:34.831Z,4.78
2022-08-30T18:28:01.990Z,4.97
2022-08-30T18:30:33.945Z,3.67
2022-08-30T18:33:18.328Z,5.60
2022-08-30T18:35:48.434Z,8.43
2022-08-30T18:38:15.888Z,5.90
2022-08-30T18:40:43.712Z,6.90
2022-08-30T18:43:10.984Z,3.55
2022-08-30T18:45:38.915Z,7.35
2022-08-30T18:48:06.177Z,4.07
2022-08-30T18:50:33.822Z,9.60
2022-08-30T18:53:01.801Z,4.53
2022-08-30T18:55:29.378Z,8.95
2022-08-30T18:57:57.503Z,7.80
2022-08-30T19:00:38.924Z,5.20
2022-08-30T19:03:11.924Z,7.88
2022-08-30T19:08:18.427Z,5.32
2022-08-30T19:11:01.416Z,4.78
2022-08-30T19:13:37.772Z,4.05
2022-08-30T19:16:14.803Z,5.88
2022-08-30T19:18:52.873Z,4.95
2022-08-30T19:21:30.968Z,8.27
2022-08-30T19:24:08.282Z,7.10
2022-08-30T19:26:46.528Z,5.40
2022-08-30T19:29:24.845Z,4.90
2022-08-30T19:34:39.529Z,4.97
2022-08-30T19:37:14.762Z,5.35
2022-08-30T19:39:58.290Z,6.47
2022-08-30T19:42:38.494Z,3.70
2022-08-30T19:45:12.621Z,4.88
2022-08-30T19:47:46.927Z,4.10
2022-08-30T19:50:28.755Z,6.00
2022-08-30T19:53:06.185Z,3.85
2022-08-30T19:55:44.099Z,4.03
2022-08-30T19:58:33.424Z,4.25
2022-08-30T20:01:32.708Z,10.45
2022-08-30T20:04:05.619Z,6.10
2022-08-30T20:06:44.991Z,5.73
2022-08-30T20:09:30.163Z,5.47
2022-08-30T20:12:05.267Z,4.03
2022-08-30T20:14:49.937Z,4.15
2022-08-30T20:17:21.264Z,6.88
2022-08-30T20:20:00.907Z,4.90
2022-08-30T20:22:50.948Z,6.40
2022-08-30T20:25:25.613Z,5.00
2022-08-30T20:28:09.401Z,4.53
2022-08-30T20:30:41.942Z,6.85
2022-08-30T20:33:30.698Z,4.80
2022-08-30T20:42:08.691Z,4.43
2022-08-30T20:47:40.180Z,3.72
2022-08-30T20:50:28.218Z,4.97
2022-08-30T20:58:49.898Z,6.47
2022-08-30T21:04:04.502Z,6.50
2022-08-30T21:06:37.139Z,4.47
2022-08-30T21:11:31.512Z,3.50
2022-08-30T21:13:58.779Z,5.57
2022-08-30T21:16:26.157Z,7.60
2022-08-30T21:18:53.987Z,6.75
2022-08-30T21:21:22.616Z,6.32
2022-08-30T21:23:50.114Z,5.13
2022-08-30T21:26:17.803Z,6.22
2022-08-30T21:28:47.400Z,4.25
2022-08-30T21:31:16.385Z,7.32
2022-08-30T21:33:43.958Z,3.72
2022-08-30T21:36:30.145Z,3.75
2022-08-30T21:39:00.782Z,7.40
2022-08-30T21:41:30.081Z,4.72
2022-08-30T21:43:58.062Z,5.57
2022-08-30T21:46:26.023Z,8.35
2022-08-30T21:48:53.373Z,5.88
2022-08-30T21:51:20.942Z,8.13
2022-08-30T21:53:48.494Z,10.30
2022-08-30T21:56:21.501Z,6.32
2022-08-30T21:58:49.114Z,6.10
2022-08-30T22:01:22.709Z,9.20
2022-08-30T22:03:50.347Z,7.57
2022-08-30T22:06:17.707Z,6.35
2022-08-30T22:08:46.127Z,6.38
2022-08-30T22:11:14.598Z,7.88
2022-08-30T22:13:43.064Z,5.50
2022-08-30T22:16:12.507Z,6.18
2022-08-30T22:18:39.922Z,5.03
2022-08-30T22:21:07.957Z,7.55
2022-08-30T22:23:35.612Z,4.85
2022-08-30T22:26:02.878Z,5.85
2022-08-30T22:28:30.002Z,7.93
2022-08-30T22:31:00.395Z,8.05
2022-08-30T22:33:27.805Z,6.38
2022-08-30T22:35:55.072Z,6.20
2022-08-30T22:38:22.271Z,6.97
2022-08-30T22:40:50.547Z,4.22
2022-08-30T22:43:18.679Z,5.70
2022-08-30T22:45:45.997Z,4.18
2022-08-30T22:48:13.162Z,7.30
2022-08-30T22:50:40.737Z,8.65
2022-08-30T22:53:08.265Z,6.43
2022-08-30T22:55:35.455Z,7.25
2022-08-30T22:58:02.572Z,6.45
2022-08-30T23:00:30.286Z,9.43
2022-08-30T23:02:57.889Z,6.72
2022-08-30T23:05:25.138Z,5.43
2022-08-30T23:07:52.343Z,9.20
2022-08-30T23:10:19.837Z,5.13
2022-08-30T23:12:47.079Z,6.72
2022-08-30T23:15:15.851Z,6.25
2022-08-30T23:17:43.061Z,5.28
2022-08-30T23:20:10.457Z,6.97
2022-08-30T23:22:37.597Z,6.38
2022-08-30T23:25:24.301Z,8.70
2022-08-30T23:28:11.181Z,7.45
2022-08-30T23:31:03.178Z,7.35
2022-08-30T23:33:49.374Z,7.60
2022-08-30T23:36:35.330Z,6.00
2022-08-30T23:39:21.685Z,7.18
2022-08-30T23:42:07.609Z,7.03
2022-08-30T23:44:53.647Z,7.78
2022-08-30T23:47:39.916Z,7.43
2022-08-30T23:50:25.903Z,6.95
2022-08-30T23:53:11.954Z,10.43
2022-08-30T23:55:58.580Z,5.20
2022-08-30T23:58:44.590Z,5.90
